createdAt,value
2023-05-01T00:00:42.631Z,34.87
2023-05-01T00:01:42.676Z,34.85
2023-05-01T00:02:42.731Z,34.82
2023-05-01T00:03:42.807Z,34.86
2023-05-01T00:04:42.673Z,34.85
2023-05-01T00:05:42.601Z,34.84
2023-05-01T00:06:42.615Z,34.80
2023-05-01T00:07:42.586Z,34.80
2023-05-01T00:08:42.560Z,34.80
2023-05-01T00:09:42.539Z,34.85
2023-05-01T00:10:42.544Z,34.83
2023-05-01T00:11:42.526Z,34.81
2023-05-01T00:12:42.516Z,34.80
2023-05-01T00:13:42.522Z,34.86
2023-05-01T00:14:42.493Z,34.87
2023-05-01T00:15:42.508Z,34.83
2023-05-01T00:16:42.576Z,34.81
2023-05-01T00:17:42.539Z,34.82
2023-05-01T00:18:42.493Z,34.77
2023-05-01T00:19:43.084Z,34.81
2023-05-01T00:20:42.456Z,34.80
2023-05-01T00:21:42.459Z,34.84
2023-05-01T00:22:42.484Z,34.81
2023-05-01T00:23:42.470Z,34.82
2023-05-01T00:24:42.502Z,34.81
2023-05-01T00:25:42.543Z,34.84
2023-05-01T00:26:42.620Z,34.82
2023-05-01T00:27:42.683Z,34.87
2023-05-01T00:28:42.742Z,34.89
2023-05-01T00:29:42.801Z,34.86
2023-05-01T00:30:42.849Z,34.89
2023-05-01T00:31:43.051Z,34.93
2023-05-01T00:32:43.026Z,34.85
2023-05-01T00:33:43.045Z,34.84
2023-05-01T00:34:43.117Z,34.84
2023-05-01T00:35:43.171Z,34.80
2023-05-01T00:36:43.254Z,34.82
2023-05-01T00:37:43.306Z,34.78
2023-05-01T00:38:43.340Z,34.81
2023-05-01T00:39:43.439Z,34.81
2023-05-01T00:40:43.476Z,34.83
2023-05-01T00:41:43.526Z,34.80
2023-05-01T00:42:43.590Z,34.82
2023-05-01T00:43:43.615Z,34.85
2023-05-01T00:44:43.683Z,34.81
2023-05-01T00:45:43.915Z,34.82
2023-05-01T00:46:43.828Z,34.82
2023-05-01T00:47:43.896Z,34.89
2023-05-01T00:48:43.988Z,34.86
2023-05-01T00:49:44.058Z,34.83
2023-05-01T00:50:44.097Z,34.82
2023-05-01T00:51:44.166Z,34.81
2023-05-01T00:52:44.211Z,34.83
2023-05-01T00:53:44.293Z,34.80
2023-05-01T00:54:44.380Z,34.80
2023-05-01T00:55:44.432Z,34.81
2023-05-01T00:56:44.462Z,34.82
2023-05-01T00:57:44.519Z,34.84
2023-05-01T00:58:44.596Z,34.82
2023-05-01T00:59:44.653Z,34.78
2023-05-01T01:00:44.749Z,34.80
2023-05-01T01:01:44.838Z,34.80
2023-05-01T01:02:44.878Z,34.84
2023-05-01T01:03:44.921Z,34.85
2023-05-01T01:04:45.021Z,34.83
2023-05-01T01:05:45.032Z,34.79
2023-05-01T01:06:45.151Z,34.84
2023-05-01T01:07:45.135Z,34.80
2023-05-01T01:08:45.175Z,34.79
2023-05-01T01:09:45.249Z,34.82
2023-05-01T01:10:45.304Z,34.80
2023-05-01T01:11:45.376Z,34.85
2023-05-01T01:12:45.427Z,34.88
2023-05-01T01:13:45.495Z,34.83
2023-05-01T01:14:45.534Z,34.83
2023-05-01T01:15:45.608Z,34.86
2023-05-01T01:16:45.732Z,34.81
2023-05-01T01:17:45.761Z,34.80
2023-05-01T01:18:45.794Z,34.80
2023-05-01T01:19:45.833Z,34.85
2023-05-01T01:20:45.883Z,34.84
2023-05-01T01:21:45.971Z,34.78
2023-05-01T01:22:46.030Z,34.81
2023-05-01T01:23:46.075Z,34.81
2023-05-01T01:24:46.142Z,34.78
2023-05-01T01:25:46.189Z,34.81
2023-05-01T01:26:46.282Z,34.80
2023-05-01T01:27:46.292Z,34.78
2023-05-01T01:28:46.376Z,34.78
2023-05-01T01:29:46.428Z,34.81
2023-05-01T01:30:46.534Z,34.80
2023-05-01T01:31:46.556Z,34.79
2023-05-01T01:32:46.643Z,34.83
2023-05-01T01:33:46.694Z,34.80
2023-05-01T01:34:46.779Z,34.84
2023-05-01T01:35:46.787Z,34.79
2023-05-01T01:36:46.863Z,34.80
2023-05-01T01:37:46.937Z,34.85
2023-05-01T01:38:46.973Z,34.80
2023-05-01T01:39:47.068Z,34.87
2023-05-01T01:40:47.103Z,34.82
2023-05-01T01:41:47.137Z,34.82
2023-05-01T01:42:47.161Z,34.79
2023-05-01T01:43:47.202Z,34.83
2023-05-01T01:44:47.261Z,34.80
2023-05-01T01:45:47.432Z,34.80
2023-05-01T01:46:47.491Z,34.82
2023-05-01T01:47:47.474Z,34.79
2023-05-01T01:48:47.436Z,34.79
2023-05-01T01:49:47.472Z,34.80
2023-05-01T01:50:47.476Z,34.87
2023-05-01T01:51:47.557Z,34.80
2023-05-01T01:52:47.536Z,34.81
2023-05-01T01:53:47.514Z,34.81
2023-05-01T01:54:47.566Z,34.79
2023-05-01T01:55:48.081Z,34.81
2023-05-01T01:56:47.599Z,34.79
2023-05-01T01:57:47.560Z,34.80
2023-05-01T01:58:47.596Z,34.78
2023-05-01T01:59:47.603Z,34.79
2023-05-01T02:00:47.611Z,34.81
2023-05-01T02:01:47.652Z,34.80
2023-05-01T02:02:47.711Z,34.79
2023-05-01T02:03:47.747Z,34.79
2023-05-01T02:04:47.625Z,34.80
2023-05-01T02:05:47.665Z,34.81
2023-05-01T02:06:47.709Z,34.82
2023-05-01T02:07:47.648Z,34.80
2023-05-01T02:08:47.673Z,34.78
2023-05-01T02:09:47.657Z,34.81
2023-05-01T02:10:47.669Z,34.81
2023-05-01T02:11:47.642Z,34.77
2023-05-01T02:12:47.670Z,34.80
2023-05-01T02:13:47.668Z,34.78
2023-05-01T02:14:47.618Z,34.77
2023-05-01T02:15:47.643Z,34.75
2023-05-01T02:16:47.631Z,34.83
2023-05-01T02:17:47.732Z,34.81
2023-05-01T02:18:47.641Z,34.79
2023-05-01T02:19:47.630Z,34.83
2023-05-01T02:20:47.631Z,34.79
2023-05-01T02:21:47.620Z,34.81
2023-05-01T02:22:47.647Z,34.81
2023-05-01T02:23:47.762Z,34.82
2023-05-01T02:24:47.670Z,34.79
2023-05-01T02:25:47.697Z,34.80
2023-05-01T02:26:47.671Z,34.80
2023-05-01T02:27:47.692Z,34.78
2023-05-01T02:28:47.748Z,34.81
2023-05-01T02:29:47.748Z,34.78
2023-05-01T02:30:47.752Z,34.82
2023-05-01T02:31:47.782Z,34.81
2023-05-01T02:32:47.825Z,34.80
2023-05-01T02:33:47.734Z,34.79
2023-05-01T02:34:47.749Z,34.80
2023-05-01T02:35:47.762Z,34.82
2023-05-01T02:36:47.783Z,34.86
2023-05-01T02:37:47.814Z,34.81
2023-05-01T02:38:47.802Z,34.84
2023-05-01T02:39:47.828Z,34.80
2023-05-01T02:40:47.870Z,34.80
2023-05-01T02:41:47.925Z,34.80
2023-05-01T02:42:47.920Z,34.79
2023-05-01T02:43:47.948Z,34.84
2023-05-01T02:44:47.962Z,34.83
2023-05-01T02:45:48.011Z,34.83
2023-05-01T02:46:47.967Z,34.82
2023-05-01T02:47:48.035Z,34.82
2023-05-01T02:48:48.042Z,34.79
2023-05-01T02:49:48.059Z,34.79
2023-05-01T02:50:48.049Z,34.80
2023-05-01T02:51:48.111Z,34.78
2023-05-01T02:52:48.146Z,34.78
2023-05-01T02:53:48.169Z,34.79
2023-05-01T02:54:48.193Z,34.81
2023-05-01T02:55:48.201Z,34.78
2023-05-01T02:56:48.227Z,34.81
2023-05-01T02:57:48.267Z,34.80
2023-05-01T02:58:48.272Z,34.80
2023-05-01T02:59:48.318Z,34.79
2023-05-01T03:00:48.346Z,34.78
2023-05-01T03:01:48.426Z,34.78
2023-05-01T03:02:48.382Z,34.81
2023-05-01T03:03:48.366Z,34.78
2023-05-01T03:04:48.356Z,34.77
2023-05-01T03:05:48.294Z,34.79
2023-05-01T03:06:48.324Z,34.86
2023-05-01T03:07:48.324Z,34.85
2023-05-01T03:08:48.329Z,34.83
2023-05-01T03:09:48.319Z,34.82
2023-05-01T03:10:48.282Z,34.81
2023-05-01T03:11:48.285Z,34.77
2023-05-01T03:12:48.272Z,34.78
2023-05-01T03:13:48.286Z,34.80
2023-05-01T03:14:48.269Z,34.81
2023-05-01T03:15:48.279Z,34.79
2023-05-01T03:16:48.298Z,34.79
2023-05-01T03:17:48.331Z,34.80
2023-05-01T03:18:48.281Z,34.81
2023-05-01T03:19:48.283Z,34.79
2023-05-01T03:20:48.281Z,34.79
2023-05-01T03:21:48.304Z,34.80
2023-05-01T03:22:48.267Z,34.81
2023-05-01T03:23:48.249Z,34.79
2023-05-01T03:24:48.264Z,34.80
2023-05-01T03:25:48.264Z,34.85
2023-05-01T03:26:48.292Z,34.83
2023-05-01T03:27:48.268Z,34.83
2023-05-01T03:28:48.238Z,34.78
2023-05-01T03:29:48.253Z,34.83
2023-05-01T03:30:48.245Z,34.79
2023-05-01T03:31:48.273Z,34.81
2023-05-01T03:32:48.276Z,34.81
2023-05-01T03:33:48.228Z,34.81
2023-05-01T03:34:48.241Z,34.82
2023-05-01T03:35:48.269Z,34.79
2023-05-01T03:36:48.307Z,34.82
2023-05-01T03:37:48.308Z,34.82
2023-05-01T03:38:48.343Z,34.78
2023-05-01T03:39:48.394Z,34.79
2023-05-01T03:40:48.398Z,34.80
2023-05-01T03:41:48.434Z,34.80
2023-05-01T03:42:48.467Z,34.80
2023-05-01T03:43:48.462Z,34.81
2023-05-01T03:44:48.510Z,34.79
2023-05-01T03:45:48.583Z,34.80
2023-05-01T03:46:48.572Z,34.80
2023-05-01T03:47:48.686Z,34.78
2023-05-01T03:48:48.660Z,34.79
2023-05-01T03:49:48.708Z,34.87
2023-05-01T03:50:48.737Z,34.84
2023-05-01T03:51:48.800Z,34.83
2023-05-01T03:52:48.839Z,34.81
2023-05-01T03:53:48.846Z,34.80
2023-05-01T03:54:48.904Z,34.80
2023-05-01T03:55:48.919Z,34.81
2023-05-01T03:56:49.055Z,34.88
2023-05-01T03:57:49.053Z,34.81
2023-05-01T03:58:49.000Z,34.87
2023-05-01T03:59:49.134Z,34.83
2023-05-01T04:00:49.104Z,34.81
2023-05-01T04:01:49.141Z,34.81
2023-05-01T04:02:49.301Z,34.80
2023-05-01T04:03:49.135Z,34.81
2023-05-01T04:04:49.167Z,34.79
2023-05-01T04:05:49.169Z,34.83
2023-05-01T04:06:49.310Z,34.84
2023-05-01T04:07:49.157Z,34.81
2023-05-01T04:08:49.168Z,34.81
2023-05-01T04:09:49.167Z,34.81
2023-05-01T04:10:49.238Z,34.81
2023-05-01T04:11:49.200Z,34.81
2023-05-01T04:12:49.226Z,34.85
2023-05-01T04:13:49.208Z,34.80
2023-05-01T04:14:49.264Z,34.82
2023-05-01T04:15:49.334Z,34.80
2023-05-01T04:16:49.304Z,34.79
2023-05-01T04:17:49.262Z,34.78
2023-05-01T04:18:49.280Z,34.79
2023-05-01T04:19:49.186Z,34.81
2023-05-01T04:20:49.281Z,34.83
2023-05-01T04:21:49.235Z,34.84
2023-05-01T04:22:49.253Z,34.83
2023-05-01T04:23:49.201Z,34.83
2023-05-01T04:24:49.180Z,34.80
2023-05-01T04:25:49.225Z,34.88
2023-05-01T04:26:49.189Z,34.82
2023-05-01T04:27:49.227Z,34.81
2023-05-01T04:28:49.167Z,34.80
2023-05-01T04:29:49.128Z,34.79
2023-05-01T04:30:49.179Z,34.80
2023-05-01T04:31:49.167Z,34.79
2023-05-01T04:32:49.207Z,34.82
2023-05-01T04:33:49.115Z,34.83
2023-05-01T04:34:49.130Z,34.82
2023-05-01T04:35:49.147Z,34.83
2023-05-01T04:36:49.128Z,34.84
2023-05-01T04:37:49.121Z,34.80
2023-05-01T04:38:49.083Z,34.82
2023-05-01T04:39:49.092Z,34.79
2023-05-01T04:40:49.105Z,34.78
2023-05-01T04:41:49.102Z,34.80
2023-05-01T04:42:49.125Z,34.82
2023-05-01T04:43:49.138Z,34.79
2023-05-01T04:44:49.127Z,34.81
2023-05-01T04:45:49.114Z,34.82
2023-05-01T04:46:49.168Z,34.85
2023-05-01T04:47:49.128Z,34.78
2023-05-01T04:48:49.097Z,34.82
2023-05-01T04:49:49.127Z,34.79
2023-05-01T04:50:49.120Z,34.78
2023-05-01T04:51:49.149Z,34.78
2023-05-01T04:52:49.113Z,34.80
2023-05-01T04:53:49.119Z,34.80
2023-05-01T04:54:49.121Z,34.80
2023-05-01T04:55:49.129Z,34.78
2023-05-01T04:56:49.120Z,34.80
2023-05-01T04:57:49.139Z,34.77
2023-05-01T04:58:49.117Z,34.78
2023-05-01T04:59:49.122Z,34.76
2023-05-01T05:00:49.129Z,34.81
2023-05-01T05:01:49.184Z,34.76
2023-05-01T05:02:49.203Z,34.76
2023-05-01T05:03:50.330Z,34.82
2023-05-01T05:04:49.156Z,34.75
2023-05-01T05:05:49.169Z,34.82
2023-05-01T05:06:49.306Z,34.80
2023-05-01T05:07:49.179Z,34.79
2023-05-01T05:08:49.183Z,34.76
2023-05-01T05:09:49.190Z,34.80
2023-05-01T05:10:49.167Z,34.81
2023-05-01T05:11:49.214Z,34.76
2023-05-01T05:12:49.195Z,34.76
2023-05-01T05:13:49.208Z,34.79
2023-05-01T05:14:49.221Z,34.76
2023-05-01T05:15:49.196Z,34.79
2023-05-01T05:16:49.372Z,34.79
2023-05-01T05:17:49.260Z,34.78
2023-05-01T05:18:49.206Z,34.76
2023-05-01T05:19:49.191Z,34.78
2023-05-01T05:20:49.238Z,34.83
2023-05-01T05:21:49.252Z,34.75
2023-05-01T05:22:49.240Z,34.77
2023-05-01T05:23:49.231Z,34.77
2023-05-01T05:24:49.227Z,34.74
2023-05-01T05:25:49.238Z,34.75
2023-05-01T05:26:49.246Z,34.79
2023-05-01T05:27:51.213Z,34.92
2023-05-01T05:28:49.211Z,34.79
2023-05-01T05:29:49.255Z,34.75
2023-05-01T05:30:49.237Z,34.80
2023-05-01T05:31:49.319Z,34.85
2023-05-01T05:32:49.311Z,34.83
2023-05-01T05:33:49.313Z,34.78
2023-05-01T05:34:49.315Z,34.76
2023-05-01T05:35:49.296Z,34.73
2023-05-01T05:36:49.304Z,34.75
2023-05-01T05:37:49.303Z,34.73
2023-05-01T05:38:49.313Z,34.93
2023-05-01T05:39:49.302Z,34.87
2023-05-01T05:40:49.343Z,34.74
2023-05-01T05:41:49.373Z,34.73
2023-05-01T05:42:49.330Z,34.81
2023-05-01T05:43:49.336Z,34.78
2023-05-01T05:44:49.325Z,34.79
2023-05-01T05:45:49.497Z,34.77
2023-05-01T05:46:49.391Z,34.77
2023-05-01T05:47:49.404Z,34.74
2023-05-01T05:48:49.380Z,34.77
2023-05-01T05:49:49.372Z,34.78
2023-05-01T05:50:49.376Z,34.84
2023-05-01T05:51:49.385Z,34.74
2023-05-01T05:52:49.393Z,34.77
2023-05-01T05:53:49.379Z,34.89
2023-05-01T05:54:49.374Z,34.79
2023-05-01T05:55:49.398Z,34.75
2023-05-01T05:56:49.408Z,34.87
2023-05-01T05:57:49.385Z,34.76
2023-05-01T05:58:49.446Z,34.72
2023-05-01T05:59:49.411Z,34.80
2023-05-01T06:00:49.447Z,34.91
2023-05-01T06:01:49.454Z,34.90
2023-05-01T06:02:49.478Z,34.84
2023-05-01T06:03:49.544Z,34.84
2023-05-01T06:04:49.461Z,34.89
2023-05-01T06:05:49.553Z,34.84
2023-05-01T06:06:49.551Z,34.82
2023-05-01T06:07:49.492Z,34.82
2023-05-01T06:08:49.511Z,34.87
2023-05-01T06:09:49.526Z,35.00
2023-05-01T06:10:49.538Z,34.83
2023-05-01T06:11:49.542Z,35.00
2023-05-01T06:12:53.749Z,34.84
2023-05-01T06:13:50.562Z,34.79
2023-05-01T06:14:49.548Z,34.86
2023-05-01T06:15:49.568Z,35.02
2023-05-01T06:16:49.521Z,34.91
2023-05-01T06:17:49.555Z,34.86
2023-05-01T06:18:49.545Z,35.15
2023-05-01T06:19:49.508Z,35.12
2023-05-01T06:20:49.481Z,34.98
2023-05-01T06:21:49.487Z,34.89
2023-05-01T06:22:49.493Z,34.91
2023-05-01T06:23:49.500Z,34.99
2023-05-01T06:24:49.529Z,35.20
2023-05-01T06:25:49.535Z,35.01
2023-05-01T06:26:49.660Z,35.02
2023-05-01T06:27:49.660Z,35.11
2023-05-01T06:28:51.259Z,34.97
2023-05-01T06:29:49.712Z,35.18
2023-05-01T06:30:49.765Z,35.00
2023-05-01T06:31:49.886Z,34.91
2023-05-01T06:32:49.887Z,34.93
2023-05-01T06:33:49.821Z,35.23
2023-05-01T06:34:49.940Z,35.12
2023-05-01T06:35:49.919Z,34.90
2023-05-01T06:36:49.979Z,35.02
2023-05-01T06:37:49.982Z,34.88
2023-05-01T06:38:50.040Z,35.11
2023-05-01T06:39:50.072Z,35.08
2023-05-01T06:40:50.112Z,35.29
2023-05-01T06:41:50.196Z,35.16
2023-05-01T06:42:50.212Z,35.24
2023-05-01T06:43:50.250Z,35.23
2023-05-01T06:44:50.286Z,35.22
2023-05-01T06:45:50.378Z,34.96
2023-05-01T06:46:50.630Z,35.16
2023-05-01T06:47:50.494Z,35.15
2023-05-01T06:48:50.506Z,35.09
2023-05-01T06:49:50.541Z,34.93
2023-05-01T06:50:50.565Z,34.78
2023-05-01T06:51:50.608Z,35.04
2023-05-01T06:52:50.642Z,35.06
2023-05-01T06:53:50.729Z,35.02
2023-05-01T06:54:50.785Z,34.83
2023-05-01T06:55:50.836Z,34.78
2023-05-01T06:56:50.906Z,34.93
2023-05-01T06:57:50.955Z,34.83
2023-05-01T06:58:51.022Z,34.75
2023-05-01T06:59:51.060Z,34.71
2023-05-01T07:00:51.153Z,34.86
2023-05-01T07:01:51.229Z,34.74
2023-05-01T07:02:51.311Z,35.07
2023-05-01T07:03:51.341Z,34.94
2023-05-01T07:04:51.365Z,34.89
2023-05-01T07:05:51.487Z,34.89
2023-05-01T07:06:51.566Z,34.75
2023-05-01T07:08:00.748Z,34.78
2023-05-01T07:08:52.567Z,34.70
2023-05-01T07:09:51.533Z,34.66
2023-05-01T07:10:51.577Z,34.60
2023-05-01T07:11:51.552Z,34.65
2023-05-01T07:12:51.547Z,34.60
2023-05-01T07:13:51.521Z,34.57
2023-05-01T07:14:51.518Z,34.59
2023-05-01T07:15:53.804Z,34.56
2023-05-01T07:16:51.571Z,34.57
2023-05-01T07:17:51.542Z,34.58
2023-05-01T07:18:51.476Z,34.55
2023-05-01T07:19:51.478Z,34.56
2023-05-01T07:20:51.472Z,34.51
2023-05-01T07:21:51.471Z,34.55
2023-05-01T07:22:51.470Z,34.54
2023-05-01T07:23:51.494Z,34.49
2023-05-01T07:24:51.468Z,34.52
2023-05-01T07:25:51.457Z,34.52
2023-05-01T07:26:51.470Z,34.49
2023-05-01T07:27:51.518Z,34.50
2023-05-01T07:28:51.435Z,34.47
2023-05-01T07:29:51.409Z,34.49
2023-05-01T07:30:51.425Z,34.46
2023-05-01T07:31:51.477Z,34.48
2023-05-01T07:32:51.454Z,34.53
2023-05-01T07:33:52.956Z,34.50
2023-05-01T07:34:51.406Z,34.48
2023-05-01T07:35:51.417Z,34.47
2023-05-01T07:36:51.383Z,34.52
2023-05-01T07:37:51.383Z,34.53
2023-05-01T07:38:51.359Z,34.47
2023-05-01T07:39:51.375Z,34.49
2023-05-01T07:40:51.377Z,34.46
2023-05-01T07:41:51.325Z,34.44
2023-05-01T07:42:53.873Z,34.54
2023-05-01T07:43:51.312Z,34.49
2023-05-01T07:44:51.318Z,34.46
2023-05-01T07:45:51.346Z,34.49
2023-05-01T07:46:51.333Z,34.49
2023-05-01T07:47:51.314Z,34.44
2023-05-01T07:48:51.310Z,34.41
2023-05-01T07:49:51.275Z,34.43
2023-05-01T07:50:51.287Z,34.42
2023-05-01T07:51:51.277Z,34.44
2023-05-01T07:52:51.360Z,34.41
2023-05-01T07:53:51.266Z,34.43
2023-05-01T07:54:51.241Z,34.42
2023-05-01T07:55:51.239Z,34.51
2023-05-01T07:56:51.244Z,34.44
2023-05-01T07:57:51.243Z,34.39
2023-05-01T07:58:51.232Z,34.40
2023-05-01T07:59:51.210Z,34.44
2023-05-01T08:00:51.194Z,34.52
2023-05-01T08:01:51.188Z,34.44
2023-05-01T08:02:51.284Z,34.45
2023-05-01T08:03:51.349Z,34.49
2023-05-01T08:04:51.191Z,34.45
2023-05-01T08:05:51.172Z,34.46
2023-05-01T08:06:51.302Z,34.44
2023-05-01T08:07:51.165Z,34.41
2023-05-01T08:08:51.152Z,34.35
2023-05-01T08:09:51.140Z,34.36
2023-05-01T08:10:51.155Z,34.36
2023-05-01T08:11:51.119Z,34.51
2023-05-01T08:12:51.121Z,34.33
2023-05-01T08:13:51.099Z,34.31
2023-05-01T08:14:51.079Z,34.26
2023-05-01T08:15:51.115Z,34.25
2023-05-01T08:16:51.114Z,34.26
2023-05-01T08:17:51.113Z,34.24
2023-05-01T08:18:51.054Z,34.23
2023-05-01T08:19:51.135Z,34.26
2023-05-01T08:20:51.165Z,34.28
2023-05-01T08:21:51.278Z,34.34
2023-05-01T08:22:51.304Z,34.34
2023-05-01T08:23:51.341Z,34.32
2023-05-01T08:24:51.388Z,34.29
2023-05-01T08:25:51.435Z,34.26
2023-05-01T08:26:51.500Z,34.24
2023-05-01T08:27:51.581Z,34.25
2023-05-01T08:28:51.628Z,34.21
2023-05-01T08:29:51.645Z,34.22
2023-05-01T08:30:51.745Z,34.24
2023-05-01T08:31:51.901Z,34.27
2023-05-01T08:32:51.866Z,34.25
2023-05-01T08:33:51.886Z,34.25
2023-05-01T08:34:51.880Z,34.24
2023-05-01T08:35:51.946Z,34.24
2023-05-01T08:36:52.022Z,34.22
2023-05-01T08:37:52.049Z,34.21
2023-05-01T08:38:52.115Z,34.18
2023-05-01T08:39:52.132Z,34.18
2023-05-01T08:40:52.190Z,34.16
2023-05-01T08:41:52.243Z,34.14
2023-05-01T08:42:52.289Z,34.13
2023-05-01T08:43:52.329Z,34.12
2023-05-01T08:44:52.384Z,34.11
2023-05-01T08:45:52.461Z,34.09
2023-05-01T08:46:52.548Z,34.07
2023-05-01T08:47:52.562Z,34.07
2023-05-01T08:48:52.583Z,34.07
2023-05-01T08:49:52.637Z,34.08
2023-05-01T08:50:52.697Z,34.08
2023-05-01T08:51:52.726Z,34.08
2023-05-01T08:52:52.796Z,34.08
2023-05-01T08:53:52.818Z,34.05
2023-05-01T08:54:52.870Z,34.04
2023-05-01T08:55:52.867Z,34.03
2023-05-01T08:56:52.938Z,34.04
2023-05-01T08:57:52.980Z,34.04
2023-05-01T08:58:53.016Z,34.02
2023-05-01T08:59:53.116Z,33.99
2023-05-01T09:00:53.118Z,34.00
2023-05-01T09:01:53.193Z,34.00
2023-05-01T09:02:53.231Z,34.01
2023-05-01T09:03:53.265Z,33.97
2023-05-01T09:04:53.260Z,33.99
2023-05-01T09:05:53.309Z,34.00
2023-05-01T09:06:53.417Z,33.97
2023-05-01T09:07:53.367Z,33.94
2023-05-01T09:08:53.406Z,33.99
2023-05-01T09:09:53.491Z,33.97
2023-05-01T09:10:53.425Z,33.96
2023-05-01T09:11:53.484Z,33.96
2023-05-01T09:12:53.527Z,33.93
2023-05-01T09:13:53.568Z,33.95
2023-05-01T09:14:53.581Z,33.95
2023-05-01T09:15:53.675Z,33.94
2023-05-01T09:16:53.749Z,33.95
2023-05-01T09:17:53.814Z,33.94
2023-05-01T09:18:53.733Z,33.93
2023-05-01T09:19:53.809Z,33.92
2023-05-01T09:20:53.798Z,33.95
2023-05-01T09:21:53.834Z,33.94
2023-05-01T09:22:53.865Z,33.94
2023-05-01T09:23:53.900Z,33.95
2023-05-01T09:24:53.957Z,33.91
2023-05-01T09:25:53.974Z,33.92
2023-05-01T09:26:54.032Z,33.93
2023-05-01T09:27:54.070Z,33.93
2023-05-01T09:28:54.087Z,33.90
2023-05-01T09:29:54.161Z,33.93
2023-05-01T09:30:54.168Z,33.92
2023-05-01T09:31:54.270Z,33.91
2023-05-01T09:32:54.244Z,33.90
2023-05-01T09:33:54.301Z,33.90
2023-05-01T09:34:54.307Z,33.89
2023-05-01T09:35:54.392Z,33.89
2023-05-01T09:36:54.372Z,33.88
2023-05-01T09:37:54.418Z,33.88
2023-05-01T09:38:54.444Z,33.86
2023-05-01T09:39:54.671Z,33.85
2023-05-01T09:40:54.481Z,33.86
2023-05-01T09:41:54.525Z,33.86
2023-05-01T09:42:54.553Z,33.81
2023-05-01T09:43:54.577Z,33.83
2023-05-01T09:44:54.633Z,33.83
2023-05-01T09:45:54.734Z,33.82
2023-05-01T09:46:54.669Z,33.84
2023-05-01T09:47:54.768Z,33.85
2023-05-01T09:48:54.696Z,33.83
2023-05-01T09:49:54.878Z,33.84
2023-05-01T09:50:54.797Z,33.81
2023-05-01T09:51:54.816Z,33.81
2023-05-01T09:52:54.831Z,33.79
2023-05-01T09:53:54.844Z,33.82
2023-05-01T09:54:54.896Z,33.80
2023-05-01T09:55:54.907Z,33.80
2023-05-01T09:56:54.940Z,33.80
2023-05-01T09:57:54.982Z,33.81
2023-05-01T09:58:55.027Z,33.80
2023-05-01T09:59:55.208Z,33.83
2023-05-01T10:00:55.061Z,33.86
2023-05-01T10:01:55.129Z,33.84
2023-05-01T10:02:55.288Z,33.84
2023-05-01T10:03:55.315Z,33.84
2023-05-01T10:04:55.160Z,33.83
2023-05-01T10:05:55.176Z,33.83
2023-05-01T10:06:55.390Z,33.83
2023-05-01T10:07:55.275Z,33.85
2023-05-01T10:08:55.278Z,33.84
2023-05-01T10:09:55.488Z,33.84
2023-05-01T10:10:55.344Z,33.84
2023-05-01T10:11:55.393Z,33.84
2023-05-01T10:12:55.459Z,33.81
2023-05-01T10:13:55.452Z,33.85
2023-05-01T10:14:55.428Z,33.83
2023-05-01T10:15:55.480Z,33.82
2023-05-01T10:16:55.566Z,33.85
2023-05-01T10:17:55.658Z,33.84
2023-05-01T10:18:55.574Z,33.83
2023-05-01T10:19:55.859Z,33.82
2023-05-01T10:20:55.648Z,33.86
2023-05-01T10:21:55.611Z,33.87
2023-05-01T10:22:55.697Z,33.84
2023-05-01T10:23:55.704Z,33.82
2023-05-01T10:24:55.729Z,33.84
2023-05-01T10:25:55.777Z,33.85
2023-05-01T10:26:55.787Z,33.88
2023-05-01T10:27:55.830Z,33.89
2023-05-01T10:28:55.826Z,33.87
2023-05-01T10:29:55.912Z,33.91
2023-05-01T10:30:55.939Z,33.89
2023-05-01T10:31:55.994Z,33.88
2023-05-01T10:32:55.924Z,33.87
2023-05-01T10:33:55.981Z,33.85
2023-05-01T10:34:56.311Z,33.88
2023-05-01T10:35:55.994Z,33.85
2023-05-01T10:36:56.025Z,33.83
2023-05-01T10:37:56.036Z,33.82
2023-05-01T10:38:56.116Z,33.80
2023-05-01T10:39:56.116Z,33.78
2023-05-01T10:40:56.143Z,33.78
2023-05-01T10:41:56.157Z,33.79
2023-05-01T10:42:56.159Z,33.73
2023-05-01T10:43:56.161Z,33.74
2023-05-01T10:44:56.365Z,33.75
2023-05-01T10:45:56.255Z,33.75
2023-05-01T10:46:56.296Z,33.79
2023-05-01T10:47:56.282Z,33.74
2023-05-01T10:48:56.356Z,33.73
2023-05-01T10:49:56.286Z,33.72
2023-05-01T10:50:56.305Z,33.78
2023-05-01T10:51:56.337Z,33.68
2023-05-01T10:52:56.342Z,33.65
2023-05-01T10:53:56.337Z,33.70
2023-05-01T10:54:56.501Z,33.66
2023-05-01T10:55:56.391Z,33.66
2023-05-01T10:56:56.420Z,33.65
2023-05-01T10:57:56.440Z,33.66
2023-05-01T10:58:56.464Z,33.65
2023-05-01T10:59:56.472Z,33.66
2023-05-01T11:00:56.449Z,33.61
2023-05-01T11:01:56.524Z,33.66
2023-05-01T11:02:56.523Z,33.64
2023-05-01T11:03:56.517Z,33.69
2023-05-01T11:04:56.849Z,33.60
2023-05-01T11:05:56.558Z,33.60
2023-05-01T11:06:56.658Z,33.57
2023-05-01T11:07:56.561Z,33.57
2023-05-01T11:08:56.586Z,33.57
2023-05-01T11:09:56.584Z,33.57
2023-05-01T11:10:56.568Z,33.59
2023-05-01T11:11:56.614Z,33.56
2023-05-01T11:12:56.657Z,33.55
2023-05-01T11:13:56.617Z,33.57
2023-05-01T11:14:56.924Z,33.58
2023-05-01T11:15:56.717Z,33.57
2023-05-01T11:16:56.657Z,33.55
2023-05-01T11:17:56.640Z,33.52
2023-05-01T11:18:56.694Z,33.56
2023-05-01T11:19:56.700Z,33.56
2023-05-01T11:20:56.707Z,33.60
2023-05-01T11:21:56.700Z,33.53
2023-05-01T11:22:56.709Z,33.56
2023-05-01T11:23:56.793Z,33.58
2023-05-01T11:24:57.282Z,33.57
2023-05-01T11:25:56.742Z,33.57
2023-05-01T11:26:56.751Z,33.57
2023-05-01T11:27:56.984Z,33.58
2023-05-01T11:28:56.785Z,33.57
2023-05-01T11:29:56.790Z,33.58
2023-05-01T11:30:56.789Z,33.57
2023-05-01T11:31:56.835Z,33.58
2023-05-01T11:32:56.864Z,33.57
2023-05-01T11:33:56.806Z,33.59
2023-05-01T11:34:57.280Z,33.57
2023-05-01T11:35:56.802Z,33.58
2023-05-01T11:36:56.833Z,33.59
2023-05-01T11:37:56.892Z,33.58
2023-05-01T11:38:56.852Z,33.58
2023-05-01T11:39:56.853Z,33.57
2023-05-01T11:40:56.847Z,33.57
2023-05-01T11:41:56.941Z,33.56
2023-05-01T11:42:56.833Z,33.58
2023-05-01T11:43:56.881Z,33.58
2023-05-01T11:44:57.099Z,33.57
2023-05-01T11:45:56.892Z,33.57
2023-05-01T11:46:56.879Z,33.58
2023-05-01T11:47:56.925Z,33.59
2023-05-01T11:48:56.915Z,33.59
2023-05-01T11:49:56.886Z,33.57
2023-05-01T11:50:56.893Z,33.55
2023-05-01T11:51:56.896Z,33.59
2023-05-01T11:52:56.938Z,33.58
2023-05-01T11:53:56.920Z,33.58
2023-05-01T11:54:56.924Z,33.57
2023-05-01T11:55:56.946Z,33.59
2023-05-01T11:56:56.926Z,33.58
2023-05-01T11:57:56.941Z,33.58
2023-05-01T11:58:56.932Z,33.57
2023-05-01T11:59:56.932Z,33.60
2023-05-01T12:00:56.948Z,33.61
2023-05-01T12:01:57.006Z,33.61
2023-05-01T12:02:57.042Z,33.60
2023-05-01T12:03:56.984Z,33.60
2023-05-01T12:04:57.364Z,33.62
2023-05-01T12:05:57.109Z,33.61
2023-05-01T12:06:56.964Z,33.65
2023-05-01T12:07:56.985Z,33.66
2023-05-01T12:08:56.969Z,33.63
2023-05-01T12:09:56.999Z,33.63
2023-05-01T12:10:57.045Z,33.62
2023-05-01T12:11:57.025Z,33.64
2023-05-01T12:12:56.980Z,33.63
2023-05-01T12:13:56.986Z,33.60
2023-05-01T12:14:57.161Z,33.63
2023-05-01T12:15:57.019Z,33.62
2023-05-01T12:16:57.015Z,33.60
2023-05-01T12:17:57.167Z,33.61
2023-05-01T12:18:57.022Z,33.57
2023-05-01T12:19:57.030Z,33.58
2023-05-01T12:20:57.012Z,33.61
2023-05-01T12:21:57.050Z,33.56
2023-05-01T12:22:57.043Z,33.54
2023-05-01T12:23:57.044Z,33.57
2023-05-01T12:24:57.250Z,33.56
2023-05-01T12:25:57.035Z,33.58
2023-05-01T12:26:57.044Z,33.57
2023-05-01T12:27:57.095Z,33.57
2023-05-01T12:28:57.072Z,33.55
2023-05-01T12:29:57.026Z,33.56
2023-05-01T12:30:57.870Z,33.57
2023-05-01T12:31:57.255Z,33.54
2023-05-01T12:32:57.054Z,33.52
2023-05-01T12:33:57.033Z,33.55
2023-05-01T12:34:57.290Z,33.59
2023-05-01T12:35:56.995Z,33.52
2023-05-01T12:36:56.985Z,33.54
2023-05-01T12:37:56.997Z,33.48
2023-05-01T12:38:57.021Z,33.48
2023-05-01T12:39:57.016Z,33.51
2023-05-01T12:40:57.023Z,33.48
2023-05-01T12:41:57.027Z,33.43
2023-05-01T12:42:57.050Z,33.47
2023-05-01T12:43:57.094Z,33.48
2023-05-01T12:44:57.164Z,33.46
2023-05-01T12:45:57.074Z,33.43
2023-05-01T12:46:57.191Z,33.44
2023-05-01T12:47:57.115Z,33.39
2023-05-01T12:48:57.114Z,33.41
2023-05-01T12:49:57.262Z,33.41
2023-05-01T12:50:57.105Z,33.41
2023-05-01T12:51:57.204Z,33.41
2023-05-01T12:52:57.175Z,33.41